SCAH weather

Tolquien Airport
Achao, Los Lagos Region, Chile

Public forecast

Using degrees Celsius for public forecast. Weather courtesy of forecast.io.

METAR (pilot weather report)

Closest report is Mocopulli Airport, 10.7 nm (19.8 km) NW. Retrieved 2019/04/25 11:00 UTC (37 minutes ago):

SCPQ 251100Z AUTO 20003KT //// R35/0500N FG VV001 05/05 Q1020

TAF (pilot weather forecast)

Forecast is more than 12 hours old.

Closest forecast is Mocopulli Airport, 10.7 nm (19.8 km) NW. Retrieved 2019/04/24 12:00 UTC (24 hours ago):

TAF SCPQ 241105Z 2412/2424 20007KT CAVOK TN02/2412Z TX16/2420Z BECMG 2420/2422 VRB02KT